createdAt,value
2018-12-08T00:00:11.286Z,98414.81
2018-12-08T00:02:38.423Z,98411.64
2018-12-08T00:05:05.578Z,98399.03
2018-12-08T00:07:32.744Z,98412.95
2018-12-08T00:10:00.380Z,98409.27
2018-12-08T00:12:28.374Z,98409.81
2018-12-08T00:14:55.511Z,98421.67
2018-12-08T00:17:22.615Z,98418.52
2018-12-08T00:19:49.853Z,98422.70
2018-12-08T00:22:17.107Z,98419.05
2018-12-08T00:24:44.248Z,98417.48
2018-12-08T00:27:11.331Z,98428.27
2018-12-08T00:29:38.521Z,98419.88
2018-12-08T00:32:05.747Z,98430.19
2018-12-08T00:34:32.956Z,98416.99
2018-12-08T00:37:00.183Z,98417.23
2018-12-08T00:39:27.673Z,98419.07
2018-12-08T00:41:54.907Z,98419.34
2018-12-08T00:44:22.202Z,98406.49
2018-12-08T00:46:49.740Z,98405.78
2018-12-08T00:49:16.945Z,98407.61
2018-12-08T00:51:44.140Z,98402.08
2018-12-08T00:54:11.370Z,98406.82
2018-12-08T00:56:38.519Z,98411.77
2018-12-08T00:59:05.749Z,98244.40
2018-12-08T01:01:32.948Z,98415.98
2018-12-08T01:04:00.185Z,98409.70
2018-12-08T01:06:27.323Z,98419.44
2018-12-08T01:08:54.445Z,98429.67
2018-12-08T01:11:22.046Z,98416.31
2018-12-08T01:13:49.184Z,98404.73
2018-12-08T01:16:16.337Z,98424.19
2018-12-08T01:18:43.716Z,98422.31
2018-12-08T01:21:10.903Z,98429.14
2018-12-08T01:23:38.028Z,98449.05
2018-12-08T01:26:05.258Z,98424.98
2018-12-08T01:28:32.476Z,98431.00
2018-12-08T01:31:00.539Z,98430.27
2018-12-08T01:33:27.681Z,98429.72
2018-12-08T01:35:57.977Z,98431.53
2018-12-08T01:38:27.346Z,98454.88
2018-12-08T01:40:56.017Z,98454.64
2018-12-08T01:46:02.515Z,98458.53
2018-12-08T01:48:29.778Z,98455.88
2018-12-08T01:50:56.928Z,98452.69
2018-12-08T01:53:24.111Z,98440.13
2018-12-08T01:55:51.331Z,98439.37
2018-12-08T01:58:18.645Z,98456.98
2018-12-08T02:00:45.946Z,98440.95
2018-12-08T02:03:13.212Z,98450.16
2018-12-08T02:05:40.333Z,98445.97
2018-12-08T02:08:07.473Z,98450.68
2018-12-08T02:10:34.704Z,98450.66
2018-12-08T02:13:01.924Z,98450.14
2018-12-08T02:15:29.156Z,98441.44
2018-12-08T02:17:56.324Z,98454.83
2018-12-08T02:20:23.531Z,98459.56
2018-12-08T02:22:50.631Z,98451.22
2018-12-08T02:25:17.787Z,98431.77
2018-12-08T02:27:45.039Z,98437.20
2018-12-08T02:30:12.204Z,98449.29
2018-12-08T02:32:39.356Z,98438.02
2018-12-08T02:35:06.496Z,98438.02
2018-12-08T02:37:34.403Z,98435.13
2018-12-08T02:40:01.749Z,98440.95
2018-12-08T02:42:29.026Z,98449.83
2018-12-08T02:44:56.321Z,98451.14
2018-12-08T02:47:23.439Z,98452.66
2018-12-08T02:49:50.678Z,98462.67
2018-12-08T02:52:18.704Z,98455.63
2018-12-08T02:54:45.918Z,98472.41
2018-12-08T02:57:13.086Z,98463.52
2018-12-08T02:59:40.945Z,98480.02
2018-12-08T03:02:08.197Z,98461.62
2018-12-08T03:04:38.796Z,98466.81
2018-12-08T03:07:06.043Z,98476.83
2018-12-08T03:09:33.239Z,98479.25
2018-12-08T03:12:00.427Z,98469.89
2018-12-08T03:14:27.544Z,98494.66
2018-12-08T03:16:54.690Z,98478.36
2018-12-08T03:19:22.403Z,98471.58
2018-12-08T03:21:49.668Z,98473.43
2018-12-08T03:24:16.797Z,98485.47
2018-12-08T03:26:44.114Z,98487.07
2018-12-08T03:29:11.387Z,98491.80
2018-12-08T03:31:38.553Z,98477.03
2018-12-08T03:34:05.805Z,98477.57
2018-12-08T03:36:32.955Z,98471.03
2018-12-08T03:39:00.101Z,98483.70
2018-12-08T03:41:27.360Z,98476.08
2018-12-08T03:43:54.533Z,98481.05
2018-12-08T03:46:21.654Z,98479.70
2018-12-08T03:48:49.356Z,98478.97
2018-12-08T03:51:16.579Z,98472.14
2018-12-08T03:53:43.691Z,98474.72
2018-12-08T03:56:10.819Z,98481.53
2018-12-08T03:58:37.962Z,98476.08
2018-12-08T04:01:05.138Z,98479.02
2018-12-08T04:03:32.353Z,98469.27
2018-12-08T04:05:59.480Z,98474.10
2018-12-08T04:08:26.827Z,98472.48
2018-12-08T04:10:53.979Z,98475.88
2018-12-08T04:13:21.102Z,98465.40
2018-12-08T04:15:48.264Z,98466.41
2018-12-08T04:18:15.436Z,98476.87
2018-12-08T04:20:42.666Z,98464.34
2018-12-08T04:23:10.042Z,98456.47
2018-12-08T04:25:37.163Z,98470.52
2018-12-08T04:28:04.263Z,98457.83
2018-12-08T04:30:31.397Z,98456.52
2018-12-08T04:32:58.566Z,98475.11
2018-12-08T04:35:26.057Z,98464.38
2018-12-08T04:37:53.323Z,98466.72
2018-12-08T04:40:20.502Z,98474.89
2018-12-08T04:42:47.685Z,98467.58
2018-12-08T04:45:14.918Z,98460.25
2018-12-08T04:47:42.203Z,98461.80
2018-12-08T04:50:09.423Z,98466.30
2018-12-08T04:52:36.604Z,98455.23
2018-12-08T04:55:03.937Z,98460.48
2018-12-08T04:57:31.071Z,98454.20
2018-12-08T04:59:58.178Z,98460.53
2018-12-08T05:02:25.311Z,98458.16
2018-12-08T05:04:52.497Z,98456.83
2018-12-08T05:07:19.636Z,98462.59
2018-12-08T05:09:46.787Z,98472.58
2018-12-08T05:12:13.920Z,98475.77
2018-12-08T05:14:41.045Z,98469.20
2018-12-08T05:17:08.175Z,98463.97
2018-12-08T05:19:35.362Z,98465.83
2018-12-08T05:22:02.532Z,98472.94
2018-12-08T05:24:29.691Z,98471.13
2018-12-08T05:26:56.849Z,98477.20
2018-12-08T05:29:23.984Z,98470.82
2018-12-08T05:31:51.075Z,98485.24
2018-12-08T05:34:18.201Z,98477.39
2018-12-08T05:36:45.295Z,98472.98
2018-12-08T05:39:12.392Z,98478.74
2018-12-08T05:41:39.481Z,98471.41
2018-12-08T05:44:06.617Z,98467.72
2018-12-08T05:46:33.727Z,98466.22
2018-12-08T05:49:00.855Z,98462.55
2018-12-08T05:51:27.986Z,98469.48
2018-12-08T05:53:55.127Z,98460.57
2018-12-08T05:56:22.275Z,98447.98
2018-12-08T05:58:49.415Z,98454.77
2018-12-08T06:01:16.838Z,98470.47
2018-12-08T06:03:43.947Z,98447.89
2018-12-08T06:06:11.162Z,98435.02
2018-12-08T06:08:38.288Z,98353.24
2018-12-08T06:11:05.416Z,98425.09
2018-12-08T06:13:32.568Z,98422.98
2018-12-08T06:15:59.733Z,98419.42
2018-12-08T06:18:26.834Z,98431.73
2018-12-08T06:20:53.938Z,98434.20
2018-12-08T06:23:21.543Z,98426.09
2018-12-08T06:25:48.935Z,98417.65
2018-12-08T06:28:19.200Z,98413.61
2018-12-08T06:30:46.584Z,98420.27
2018-12-08T06:33:13.710Z,98416.80
2018-12-08T06:35:40.815Z,98424.19
2018-12-08T06:38:08.006Z,98429.18
2018-12-08T06:40:35.175Z,98418.45
2018-12-08T06:43:02.329Z,98425.48
2018-12-08T06:45:29.458Z,98404.73
2018-12-08T06:47:56.679Z,98421.28
2018-12-08T06:50:23.788Z,98413.17
2018-12-08T06:52:50.924Z,98410.87
2018-12-08T06:55:18.045Z,98411.11
2018-12-08T06:57:45.289Z,98428.88
2018-12-08T07:00:12.485Z,98409.38
2018-12-08T07:02:39.694Z,98419.38
2018-12-08T07:05:06.883Z,98415.70
2018-12-08T07:07:34.123Z,98414.34
2018-12-08T07:10:01.243Z,98406.11
2018-12-08T07:12:28.437Z,98408.25
2018-12-08T07:14:55.589Z,98422.91
2018-12-08T07:17:22.725Z,98403.00
2018-12-08T07:19:49.882Z,98410.41
2018-12-08T07:22:17.126Z,98422.27
2018-12-08T07:24:44.252Z,98412.82
2018-12-08T07:27:11.361Z,98418.80
2018-12-08T07:29:39.443Z,98419.09
2018-12-08T07:32:07.379Z,98421.20
2018-12-08T07:34:34.656Z,98418.07
2018-12-08T07:37:01.884Z,98413.31
2018-12-08T07:39:29.059Z,98444.32
2018-12-08T07:41:56.192Z,98425.13
2018-12-08T07:44:23.337Z,98425.38
2018-12-08T07:46:51.857Z,98432.98
2018-12-08T07:49:19.188Z,98431.14
2018-12-08T07:51:46.356Z,98428.98
2018-12-08T07:54:13.529Z,98423.99
2018-12-08T07:56:41.383Z,98427.82
2018-12-08T07:59:09.368Z,98411.45
2018-12-08T08:01:36.697Z,98406.80
2018-12-08T08:04:04.540Z,98397.36
2018-12-08T08:06:31.787Z,98401.37
2018-12-08T08:08:59.729Z,98387.77
2018-12-08T08:11:26.884Z,98380.66
2018-12-08T08:13:54.061Z,98386.99
2018-12-08T08:16:21.238Z,98384.63
2018-12-08T08:18:50.325Z,98386.24
2018-12-08T08:21:17.553Z,98390.59
2018-12-08T08:23:44.740Z,98382.72
2018-12-08T08:26:11.958Z,98385.14
2018-12-08T08:28:39.962Z,98383.75
2018-12-08T08:31:07.185Z,98383.75
2018-12-08T08:33:34.461Z,98384.87
2018-12-08T08:36:03.304Z,98382.00
2018-12-08T08:38:30.478Z,98376.84
2018-12-08T08:40:57.913Z,98361.54
2018-12-08T08:43:25.191Z,98385.39
2018-12-08T08:45:52.510Z,98369.70
2018-12-08T08:48:19.805Z,98371.07
2018-12-08T08:50:47.016Z,98363.97
2018-12-08T08:53:14.920Z,98356.63
2018-12-08T08:55:43.302Z,98363.78
2018-12-08T08:58:11.268Z,98365.38
2018-12-08T09:00:38.522Z,98371.41
2018-12-08T09:03:05.678Z,98374.56
2018-12-08T09:05:32.816Z,98385.56
2018-12-08T09:08:00.586Z,98375.77
2018-12-08T09:10:27.734Z,98365.05
2018-12-08T09:12:54.855Z,98366.62
2018-12-08T09:15:22.671Z,98358.77
2018-12-08T09:17:49.831Z,98364.19
2018-12-08T09:20:17.057Z,98377.13
2018-12-08T09:22:44.232Z,98376.39
2018-12-08T09:25:11.458Z,98383.22
2018-12-08T09:27:38.722Z,98366.64
2018-12-08T09:30:08.224Z,98368.97
2018-12-08T09:32:35.397Z,98375.30
2018-12-08T09:35:02.889Z,98372.43
2018-12-08T09:37:30.695Z,98350.65
2018-12-08T09:39:57.845Z,98350.20
2018-12-08T09:42:25.113Z,98362.61
2018-12-08T09:44:52.267Z,98357.88
2018-12-08T09:47:19.401Z,98362.95
2018-12-08T09:49:46.656Z,98357.47
2018-12-08T09:52:13.904Z,98352.48
2018-12-08T09:54:41.128Z,98366.97
2018-12-08T09:57:08.480Z,98361.20
2018-12-08T09:59:35.738Z,98378.48
2018-12-08T10:02:02.942Z,98379.53
2018-12-08T10:04:30.311Z,98361.62
2018-12-08T10:06:57.739Z,98358.22
2018-12-08T10:09:25.156Z,98354.34
2018-12-08T10:11:52.560Z,98356.17
2018-12-08T10:14:19.868Z,98354.86
2018-12-08T10:16:47.016Z,98339.89
2018-12-08T10:19:14.213Z,98347.78
2018-12-08T10:21:41.656Z,98340.19
2018-12-08T10:24:09.062Z,98337.50
2018-12-08T10:26:37.736Z,98335.14
2018-12-08T10:29:05.256Z,98330.66
2018-12-08T10:31:32.506Z,98338.38
2018-12-08T10:33:59.758Z,98339.36
2018-12-08T10:36:28.156Z,98333.83
2018-12-08T10:38:55.332Z,98341.98
2018-12-08T10:41:22.672Z,98341.14
2018-12-08T10:43:49.916Z,98337.20
2018-12-08T10:46:18.172Z,98328.53
2018-12-08T10:48:46.192Z,98295.88
2018-12-08T10:51:13.369Z,98331.72
2018-12-08T10:53:40.579Z,98331.72
2018-12-08T10:56:07.796Z,98327.04
2018-12-08T10:58:34.978Z,98326.03
2018-12-08T11:01:06.685Z,98328.40
2018-12-08T11:03:44.011Z,98314.45
2018-12-08T11:06:11.311Z,98320.52
2018-12-08T11:08:38.487Z,98322.13
2018-12-08T11:11:05.965Z,98317.91
2018-12-08T11:13:33.039Z,98308.20
2018-12-08T11:16:00.705Z,98333.13
2018-12-08T11:18:27.887Z,98324.75
2018-12-08T11:20:55.062Z,98324.72
2018-12-08T11:23:22.244Z,98323.97
2018-12-08T11:25:54.130Z,98326.34
2018-12-08T11:28:21.430Z,98331.06
2018-12-08T11:30:48.616Z,98321.60
2018-12-08T11:33:15.932Z,98317.66
2018-12-08T11:35:43.635Z,98319.00
2018-12-08T11:38:10.868Z,98321.89
2018-12-08T11:40:38.226Z,98311.91
2018-12-08T11:43:05.380Z,98310.84
2018-12-08T11:45:32.707Z,98314.25
2018-12-08T11:47:59.817Z,98317.97
2018-12-08T11:50:26.958Z,98318.21
2018-12-08T11:52:54.086Z,98316.36
2018-12-08T11:55:21.337Z,98328.19
2018-12-08T11:57:48.585Z,98319.48
2018-12-08T12:00:15.761Z,98342.11
2018-12-08T12:02:42.966Z,98322.90
2018-12-08T12:05:10.256Z,98317.16
2018-12-08T12:07:37.620Z,98317.16
2018-12-08T12:10:05.125Z,98319.53
2018-12-08T12:12:32.723Z,98310.31
2018-12-08T12:15:00.277Z,98311.11
2018-12-08T12:17:27.365Z,98305.33
2018-12-08T12:19:54.459Z,98319.30
2018-12-08T12:22:21.583Z,98311.67
2018-12-08T12:24:48.853Z,98297.74
2018-12-08T12:27:16.127Z,98305.91
2018-12-08T12:29:43.477Z,98303.53
2018-12-08T12:32:11.111Z,98291.95
2018-12-08T12:34:38.236Z,98289.33
2018-12-08T12:37:05.565Z,98290.38
2018-12-08T12:39:32.838Z,98294.31
2018-12-08T12:42:00.145Z,98292.23
2018-12-08T12:44:27.417Z,98283.56
2018-12-08T12:46:54.632Z,98277.75
2018-12-08T12:49:21.731Z,98287.49
2018-12-08T12:51:48.908Z,98285.93
2018-12-08T12:54:16.287Z,98291.98
2018-12-08T12:56:44.092Z,98280.11
2018-12-08T12:59:11.380Z,98289.06
2018-12-08T13:01:38.508Z,98283.28
2018-12-08T13:04:05.815Z,98279.58
2018-12-08T13:06:33.269Z,98287.74
2018-12-08T13:09:00.950Z,98282.77
2018-12-08T13:11:28.324Z,98292.73
2018-12-08T13:13:55.609Z,98288.53
2018-12-08T13:16:23.038Z,98275.66
2018-12-08T13:18:51.370Z,98285.92
2018-12-08T13:21:18.476Z,98287.48
2018-12-08T13:23:45.570Z,98271.99
2018-12-08T13:26:12.692Z,98284.35
2018-12-08T13:28:39.882Z,98262.78
2018-12-08T13:31:07.915Z,98268.31
2018-12-08T13:33:35.005Z,98269.64
2018-12-08T13:36:02.717Z,98254.39
2018-12-08T13:38:29.877Z,98293.84
2018-12-08T13:40:56.959Z,98279.11
2018-12-08T13:43:24.138Z,98278.32
2018-12-08T13:45:51.199Z,98271.73
2018-12-08T13:48:20.374Z,98269.91
2018-12-08T13:50:47.940Z,98283.07
2018-12-08T13:53:15.115Z,98257.02
2018-12-08T13:55:42.269Z,98267.80
2018-12-08T13:58:09.493Z,98279.36
2018-12-08T14:00:36.622Z,98271.47
2018-12-08T14:03:03.719Z,98268.05
2018-12-08T14:05:30.909Z,98276.99
2018-12-08T14:07:58.121Z,98264.63
2018-12-08T14:10:25.188Z,98278.58
2018-12-08T14:12:52.275Z,98269.64
2018-12-08T14:15:19.938Z,98261.47
2018-12-08T14:17:47.334Z,98266.22
2018-12-08T14:20:21.372Z,98269.37
2018-12-08T14:22:48.528Z,98258.84
2018-12-08T14:25:15.644Z,98255.44
2018-12-08T14:27:42.923Z,98270.95
2018-12-08T14:30:10.181Z,98253.31
2018-12-08T14:32:37.406Z,98248.31
2018-12-08T14:35:04.754Z,98253.84
2018-12-08T14:37:32.083Z,98256.23
2018-12-08T14:39:59.270Z,98255.16
2018-12-08T14:42:26.446Z,98259.11
2018-12-08T14:44:53.750Z,98241.48
2018-12-08T14:47:22.032Z,98257.00
2018-12-08T14:49:49.379Z,98272.01
2018-12-08T14:52:16.638Z,98269.38
2018-12-08T14:54:43.729Z,98263.59
2018-12-08T14:57:10.890Z,98266.20
2018-12-08T14:59:37.979Z,98252.27
2018-12-08T15:02:05.113Z,98249.61
2018-12-08T15:04:32.270Z,98267.27
2018-12-08T15:06:59.424Z,98265.67
2018-12-08T15:09:26.644Z,98262.52
2018-12-08T15:11:53.759Z,98257.01
2018-12-08T15:14:20.853Z,98258.30
2018-12-08T15:16:47.984Z,98256.21
2018-12-08T15:19:15.081Z,98254.90
2018-12-08T15:21:42.220Z,98248.31
2018-12-08T15:24:09.423Z,98270.14
2018-12-08T15:26:36.622Z,98240.42
2018-12-08T15:29:03.872Z,98239.63
2018-12-08T15:31:31.790Z,98255.42
2018-12-08T15:33:59.011Z,98241.19
2018-12-08T15:36:26.130Z,98242.75
2018-12-08T15:38:53.499Z,98245.14
2018-12-08T15:41:20.591Z,98272.78
2018-12-08T15:43:47.807Z,98259.61
2018-12-08T15:46:15.933Z,98259.09
2018-12-08T15:48:43.187Z,98263.56
2018-12-08T15:51:10.422Z,98263.84
2018-12-08T15:53:37.658Z,98260.41
2018-12-08T15:56:04.904Z,98250.67
2018-12-08T15:58:32.052Z,98258.05
2018-12-08T16:00:59.185Z,98261.47
2018-12-08T16:03:26.416Z,98213.59
2018-12-08T16:05:53.496Z,98245.69
2018-12-08T16:08:21.540Z,98258.59
2018-12-08T16:10:48.725Z,98260.17
2018-12-08T16:13:16.488Z,98244.37
2018-12-08T16:15:43.727Z,98235.43
2018-12-08T16:18:10.843Z,98252.78
2018-12-08T16:20:38.492Z,98232.25
2018-12-08T16:23:05.757Z,98226.98
2018-12-08T16:25:33.209Z,98229.38
2018-12-08T16:28:00.395Z,98227.27
2018-12-08T16:30:27.614Z,98230.41
2018-12-08T16:32:54.789Z,98229.62
2018-12-08T16:35:22.054Z,98234.36
2018-12-08T16:37:56.771Z,98205.14
2018-12-08T16:40:18.428Z,98209.63
2018-12-08T16:42:45.599Z,98199.63
2018-12-08T16:45:12.788Z,98192.25
2018-12-08T16:47:39.867Z,98202.27
2018-12-08T16:50:08.885Z,98197.24
2018-12-08T16:52:36.119Z,98190.11
2018-12-08T16:55:03.743Z,98186.44
2018-12-08T16:57:31.080Z,98185.16
2018-12-08T16:59:58.337Z,98180.66
2018-12-08T17:02:25.596Z,98180.41
2018-12-08T17:04:52.752Z,98168.80
2018-12-08T17:07:20.090Z,98165.66
2018-12-08T17:09:47.241Z,98168.29
2018-12-08T17:12:14.435Z,98160.91
2018-12-08T17:14:41.601Z,98163.02
2018-12-08T17:17:08.749Z,98162.50
2018-12-08T17:19:35.931Z,98159.88
2018-12-08T17:22:03.271Z,98154.09
2018-12-08T17:24:30.459Z,98155.16
2018-12-08T17:26:58.268Z,98159.08
2018-12-08T17:29:25.444Z,98154.09
2018-12-08T17:31:52.645Z,98142.01
2018-12-08T17:34:19.868Z,98135.16
2018-12-08T17:36:46.997Z,98143.33
2018-12-08T17:39:14.126Z,98135.15
2018-12-08T17:41:41.893Z,98130.93
2018-12-08T17:44:09.044Z,98128.85
2018-12-08T17:46:36.180Z,98130.16
2018-12-08T17:49:03.447Z,98123.83
2018-12-08T17:51:30.548Z,98128.84
2018-12-08T17:54:00.012Z,98130.45
2018-12-08T17:56:27.149Z,98129.66
2018-12-08T17:58:54.964Z,98127.27
2018-12-08T18:01:22.758Z,98121.47
2018-12-08T18:03:50.456Z,98103.28
2018-12-08T18:06:17.549Z,98092.80
2018-12-08T18:08:45.793Z,98081.72
2018-12-08T18:11:12.922Z,98085.95
2018-12-08T18:13:40.127Z,98077.26
2018-12-08T18:16:07.309Z,98063.81
2018-12-08T18:18:34.539Z,98054.09
2018-12-08T18:21:01.730Z,98049.34
2018-12-08T18:23:29.249Z,98049.90
2018-12-08T18:25:56.376Z,98041.48
2018-12-08T18:28:23.494Z,98038.06
2018-12-08T18:30:51.000Z,98024.34
2018-12-08T18:33:18.088Z,98013.05
2018-12-08T18:35:45.286Z,98010.38
2018-12-08T18:38:12.443Z,98005.68
2018-12-08T18:40:39.746Z,98005.16
2018-12-08T18:43:06.913Z,98006.95
2018-12-08T18:45:34.005Z,97990.93
2018-12-08T18:48:01.113Z,97979.61
2018-12-08T18:50:28.365Z,97973.00
2018-12-08T18:52:55.578Z,97966.19
2018-12-08T18:55:22.700Z,97961.95
2018-12-08T18:57:49.888Z,97959.84
2018-12-08T19:00:17.080Z,97945.59
2018-12-08T19:02:44.228Z,97935.36
2018-12-08T19:05:11.459Z,97938.83
2018-12-08T19:07:38.621Z,97929.60
2018-12-08T19:10:06.132Z,97916.41
2018-12-08T19:12:33.308Z,97911.38
2018-12-08T19:15:00.426Z,97919.78
2018-12-08T19:17:28.177Z,97894.62
2018-12-08T19:19:55.266Z,97886.42
2018-12-08T19:22:22.481Z,97891.73
2018-12-08T19:24:49.565Z,97875.61
2018-12-08T19:27:16.649Z,97873.72
2018-12-08T19:29:43.952Z,97871.89
2018-12-08T19:32:11.092Z,97855.29
2018-12-08T19:34:38.203Z,97869.44
2018-12-08T19:37:05.901Z,97853.41
2018-12-08T19:39:33.055Z,97858.67
2018-12-08T19:42:00.318Z,97837.37
2018-12-08T19:44:27.504Z,97842.89
2018-12-08T19:46:54.659Z,97843.22
2018-12-08T19:49:22.471Z,97814.23
2018-12-08T19:51:49.682Z,97820.52
2018-12-08T19:54:16.828Z,97790.45
2018-12-08T19:56:44.034Z,97814.78
2018-12-08T19:59:11.132Z,97806.34
2018-12-08T20:01:38.390Z,97802.84
2018-12-08T20:04:05.529Z,97778.94
2018-12-08T20:06:32.722Z,97788.44
2018-12-08T20:08:59.899Z,97787.05
2018-12-08T20:11:28.060Z,97772.58
2018-12-08T20:13:55.196Z,97765.73
2018-12-08T20:16:22.980Z,97777.28
2018-12-08T20:18:50.214Z,97765.63
2018-12-08T20:21:17.345Z,97761.20
2018-12-08T20:23:44.625Z,97749.09
2018-12-08T20:26:11.779Z,97750.64
2018-12-08T20:28:38.920Z,97733.00
2018-12-08T20:31:06.107Z,97736.66
2018-12-08T20:33:33.228Z,97548.63
2018-12-08T20:36:00.480Z,97732.72
2018-12-08T20:38:27.619Z,97721.85
2018-12-08T20:40:54.930Z,97727.62
2018-12-08T20:43:22.029Z,97712.64
2018-12-08T20:45:49.164Z,97687.09
2018-12-08T20:48:18.409Z,97681.33
2018-12-08T20:50:45.491Z,97679.67
2018-12-08T20:53:12.732Z,97659.16
2018-12-08T20:55:39.836Z,97640.91
2018-12-08T20:58:07.003Z,97641.38
2018-12-08T21:00:34.132Z,97626.57
2018-12-08T21:03:01.239Z,97600.47
2018-12-08T21:05:28.564Z,97613.70
2018-12-08T21:07:56.429Z,97600.52
2018-12-08T21:10:23.711Z,97589.67
2018-12-08T21:12:50.921Z,97586.51
2018-12-08T21:15:18.494Z,97566.75
2018-12-08T21:17:45.816Z,97573.62
2018-12-08T21:20:13.000Z,97589.34
2018-12-08T21:22:40.156Z,97547.95
2018-12-08T21:25:07.894Z,97540.31
2018-12-08T21:27:35.636Z,97574.47
2018-12-08T21:30:02.857Z,97542.52
2018-12-08T21:32:30.270Z,97552.30
2018-12-08T21:34:57.440Z,97558.30
2018-12-08T21:37:24.636Z,97532.73
2018-12-08T21:39:51.760Z,97506.95
2018-12-08T21:42:19.040Z,97497.84
2018-12-08T21:44:46.191Z,97488.02
2018-12-08T21:47:13.335Z,97502.44
2018-12-08T21:49:40.460Z,97483.47
2018-12-08T21:52:07.713Z,97463.18
2018-12-08T21:54:34.835Z,97475.80
2018-12-08T21:57:02.072Z,97462.17
2018-12-08T21:59:29.763Z,97461.86
2018-12-08T22:01:56.964Z,97440.37
2018-12-08T22:04:24.132Z,97423.21
2018-12-08T22:06:51.420Z,97433.41
2018-12-08T22:09:18.533Z,97423.25
2018-12-08T22:11:45.920Z,97417.98
2018-12-08T22:14:13.020Z,97400.75
2018-12-08T22:16:40.175Z,97401.01
2018-12-08T22:19:07.516Z,97387.30
2018-12-08T22:21:34.633Z,97360.03
2018-12-08T22:24:01.719Z,97365.78
2018-12-08T22:26:28.828Z,97353.24
2018-12-08T22:28:56.500Z,97382.48
2018-12-08T22:31:23.652Z,97364.95
2018-12-08T22:33:50.790Z,97348.16
2018-12-08T22:36:17.939Z,97386.34
2018-12-08T22:38:45.164Z,97408.52
2018-12-08T22:41:12.404Z,97388.72
2018-12-08T22:43:39.668Z,97395.00
2018-12-08T22:46:06.871Z,97413.79
2018-12-08T22:48:34.418Z,97420.09
2018-12-08T22:51:01.635Z,97434.04
2018-12-08T22:53:28.909Z,97401.33
2018-12-08T22:55:55.996Z,97383.14
2018-12-08T22:58:23.148Z,97387.77
2018-12-08T23:00:51.680Z,97389.97
2018-12-08T23:03:19.415Z,97401.56
2018-12-08T23:05:47.031Z,97401.80
2018-12-08T23:08:14.160Z,97438.95
2018-12-08T23:10:41.366Z,97400.39
2018-12-08T23:13:08.437Z,97398.72
2018-12-08T23:15:35.617Z,97391.88
2018-12-08T23:18:02.737Z,97391.97
2018-12-08T23:20:30.235Z,97387.25
2018-12-08T23:22:57.615Z,97393.84
2018-12-08T23:25:25.874Z,97359.80
2018-12-08T23:27:53.115Z,97377.02
2018-12-08T23:30:20.365Z,97390.42
2018-12-08T23:32:47.696Z,97380.71
2018-12-08T23:35:14.859Z,97378.16
2018-12-08T23:37:41.996Z,97377.14
2018-12-08T23:40:09.233Z,97377.92
2018-12-08T23:42:37.273Z,97390.81
2018-12-08T23:45:04.702Z,97373.56
2018-12-08T23:47:31.827Z,97363.67
2018-12-08T23:49:59.019Z,97367.41
2018-12-08T23:52:26.128Z,97375.55
2018-12-08T23:54:53.283Z,97375.02
2018-12-08T23:57:20.416Z,97405.84
2018-12-08T23:59:47.867Z,97491.23
